createdAt,value
2019-04-22T00:00:39.262Z,4.83
2019-04-22T00:03:10.669Z,4.60
2019-04-22T00:06:00.386Z,4.53
2019-04-22T00:08:50.930Z,4.60
2019-04-22T00:11:36.780Z,4.70
2019-04-22T00:13:59.563Z,4.93
2019-04-22T00:16:33.529Z,4.67
2019-04-22T00:21:46.050Z,4.33
2019-04-22T00:24:10.615Z,4.27
2019-04-22T00:26:44.018Z,4.50
2019-04-22T00:29:42.402Z,4.57
2019-04-22T00:32:02.061Z,4.77
2019-04-22T00:34:34.173Z,5.13
2019-04-22T00:37:11.621Z,4.37
2019-04-22T00:39:50.252Z,4.50
2019-04-22T00:42:21.432Z,4.97
2019-04-22T00:44:51.888Z,5.53
2019-04-22T00:47:28.962Z,4.60
2019-04-22T00:50:12.670Z,4.83
2019-04-22T00:52:34.670Z,4.27
2019-04-22T00:55:05.453Z,5.13
2019-04-22T00:57:35.843Z,4.97
2019-04-22T01:00:18.131Z,4.80
2019-04-22T01:05:21.383Z,4.53
2019-04-22T01:07:49.461Z,4.70
2019-04-22T01:13:06.436Z,4.60
2019-04-22T01:15:40.260Z,4.50
2019-04-22T01:18:07.181Z,4.67
2019-04-22T01:21:14.347Z,4.93
2019-04-22T01:23:19.265Z,4.87
2019-04-22T01:25:46.358Z,4.77
2019-04-22T01:28:10.963Z,4.40
2019-04-22T01:33:21.578Z,4.57
2019-04-22T01:36:01.416Z,5.17
2019-04-22T01:38:36.527Z,4.73
2019-04-22T01:46:31.779Z,4.63
2019-04-22T01:48:59.545Z,5.20
2019-04-22T01:54:22.290Z,4.87
2019-04-22T01:56:47.302Z,4.90
2019-04-22T01:59:12.857Z,5.20
2019-04-22T02:04:36.793Z,4.87
2019-04-22T02:07:02.080Z,5.43
2019-04-22T02:09:38.415Z,4.73
2019-04-22T02:14:45.477Z,4.83
2019-04-22T02:17:17.637Z,4.53
2019-04-22T02:19:51.264Z,4.20
2019-04-22T02:24:59.042Z,4.90
2019-04-22T02:27:26.163Z,4.67
2019-04-22T02:29:47.353Z,4.13
2019-04-22T02:32:39.261Z,4.10
2019-04-22T02:35:06.920Z,4.33
2019-04-22T02:37:26.501Z,4.33
2019-04-22T02:39:57.292Z,5.13
2019-04-22T02:42:16.627Z,5.63
2019-04-22T02:44:53.134Z,5.47
2019-04-22T02:50:01.791Z,5.60
2019-04-22T02:52:35.437Z,6.00
2019-04-22T02:55:04.970Z,5.60
2019-04-22T03:02:50.626Z,4.70
2019-04-22T03:05:09.093Z,4.43
2019-04-22T03:07:48.526Z,4.63
2019-04-22T03:10:09.953Z,5.00
2019-04-22T03:12:35.242Z,4.57
2019-04-22T03:15:09.488Z,4.37
2019-04-22T03:17:43.744Z,4.73
2019-04-22T03:22:57.549Z,4.40
2019-04-22T03:27:48.151Z,5.20
2019-04-22T03:30:56.750Z,5.10
2019-04-22T03:33:19.851Z,5.67
2019-04-22T03:35:41.991Z,5.07
2019-04-22T03:38:20.150Z,5.33
2019-04-22T03:41:06.234Z,4.60
2019-04-22T03:43:29.468Z,4.83
2019-04-22T03:45:37.961Z,4.77
2019-04-22T03:48:17.670Z,4.50
2019-04-22T03:51:07.959Z,5.40
2019-04-22T03:53:35.769Z,5.17
2019-04-22T03:56:18.816Z,4.63
2019-04-22T03:58:47.920Z,4.70
2019-04-22T04:01:32.024Z,4.73
2019-04-22T04:04:06.151Z,5.03
2019-04-22T04:06:36.644Z,5.07
2019-04-22T04:11:53.862Z,5.40
2019-04-22T04:14:18.103Z,4.73
2019-04-22T04:16:52.481Z,4.43
2019-04-22T04:19:13.579Z,4.50
2019-04-22T04:22:00.696Z,4.40
2019-04-22T04:29:37.759Z,5.03
2019-04-22T04:31:58.847Z,4.97
2019-04-22T04:34:28.339Z,5.03
2019-04-22T04:39:28.752Z,5.10
2019-04-22T04:42:14.002Z,4.80
2019-04-22T04:47:39.072Z,5.43
2019-04-22T04:49:34.886Z,5.20
2019-04-22T04:52:14.468Z,5.30
2019-04-22T04:57:07.458Z,5.30
2019-04-22T06:16:44.310Z,5.27
2019-04-22T06:22:02.746Z,4.90
2019-04-22T06:24:27.521Z,4.80
2019-04-22T06:29:30.158Z,4.73
2019-04-22T06:34:43.074Z,5.00
2019-04-22T06:37:23.528Z,5.23
2019-04-22T06:40:19.841Z,4.73
2019-04-22T06:43:15.849Z,4.63
2019-04-22T06:45:39.686Z,4.80
2019-04-22T06:48:23.713Z,4.17
2019-04-22T06:50:52.974Z,4.07
2019-04-22T06:53:25.045Z,4.53
2019-04-22T06:56:01.224Z,3.60
2019-04-22T06:58:42.516Z,3.93
2019-04-22T07:01:18.209Z,3.70
2019-04-22T07:06:33.433Z,3.57
2019-04-22T07:09:13.916Z,3.40
2019-04-22T07:11:29.689Z,3.40
2019-04-22T07:16:39.307Z,2.90
2019-04-22T07:19:12.215Z,2.80
2019-04-22T07:21:36.895Z,3.10
2019-04-22T07:24:27.697Z,3.67
2019-04-22T07:26:57.571Z,3.57
2019-04-22T07:29:14.340Z,3.30
2019-04-22T07:31:43.137Z,3.30
2019-04-22T07:34:19.422Z,3.00
2019-04-22T07:39:32.633Z,3.20
2019-04-22T07:41:56.817Z,3.20
2019-04-22T07:47:08.122Z,3.43
2019-04-22T07:52:04.813Z,3.27
2019-04-22T07:54:38.208Z,3.33
2019-04-22T07:57:10.268Z,3.33
2019-04-22T07:59:35.235Z,3.20
2019-04-22T08:02:11.038Z,3.13
2019-04-22T08:07:14.422Z,2.60
2019-04-22T08:09:48.000Z,3.20
2019-04-22T08:12:20.245Z,2.80
2019-04-22T08:14:45.643Z,2.80
2019-04-22T08:17:38.832Z,3.30
2019-04-22T08:19:48.486Z,3.17
2019-04-22T08:22:15.739Z,2.93
2019-04-22T08:24:54.008Z,3.60
2019-04-22T08:27:15.170Z,2.98
2019-04-22T08:29:59.774Z,2.95
2019-04-22T08:32:21.940Z,2.80
2019-04-22T08:34:47.231Z,3.37
2019-04-22T08:39:54.615Z,2.80
2019-04-22T08:42:34.705Z,2.70
2019-04-22T08:45:09.402Z,2.80
2019-04-22T08:47:36.156Z,3.05
2019-04-22T08:50:21.816Z,2.92
2019-04-22T08:52:42.215Z,3.00
2019-04-22T08:55:20.752Z,3.08
2019-04-22T08:58:13.019Z,3.20
2019-04-22T09:00:21.815Z,3.25
2019-04-22T09:02:54.012Z,2.60
2019-04-22T09:05:51.864Z,2.70
2019-04-22T09:08:07.734Z,3.10
2019-04-22T09:10:37.819Z,3.27
2019-04-22T09:18:24.768Z,2.87
2019-04-22T09:20:58.817Z,3.12
2019-04-22T09:23:33.906Z,2.83
2019-04-22T09:25:53.193Z,2.60
2019-04-22T09:28:32.670Z,2.67
2019-04-22T09:31:01.792Z,2.98
2019-04-22T09:33:31.923Z,2.90
2019-04-22T09:36:16.458Z,2.70
2019-04-22T09:38:41.037Z,3.12
2019-04-22T09:41:15.212Z,2.98
2019-04-22T09:43:47.093Z,2.98
2019-04-22T09:46:28.268Z,2.83
2019-04-22T09:49:00.318Z,2.40
2019-04-22T09:51:25.577Z,2.95
2019-04-22T09:54:01.178Z,2.55
2019-04-22T09:59:05.466Z,2.62
2019-04-22T10:01:59.623Z,2.60
2019-04-22T10:04:27.566Z,2.83
2019-04-22T10:06:33.789Z,2.95
2019-04-22T10:09:27.390Z,2.70
2019-04-22T10:11:37.755Z,2.72
2019-04-22T10:19:25.817Z,2.85
2019-04-22T10:21:57.209Z,2.60
2019-04-22T10:24:19.269Z,3.10
2019-04-22T10:27:07.749Z,2.98
2019-04-22T10:29:24.639Z,3.45
2019-04-22T10:31:54.443Z,2.70
2019-04-22T10:34:19.168Z,2.80
2019-04-22T10:36:35.662Z,2.77
2019-04-22T10:39:08.543Z,2.70
2019-04-22T10:41:41.226Z,2.80
2019-04-22T10:44:10.996Z,2.65
2019-04-22T10:46:53.537Z,3.02
2019-04-22T10:49:24.408Z,2.90
2019-04-22T10:51:54.847Z,2.60
2019-04-22T10:54:25.344Z,2.55
2019-04-22T10:57:03.680Z,2.67
2019-04-22T10:59:34.284Z,3.52
2019-04-22T11:02:03.454Z,2.58
2019-04-22T11:04:32.546Z,2.85
2019-04-22T11:07:13.570Z,2.62
2019-04-22T11:09:52.028Z,2.60
2019-04-22T11:12:19.310Z,2.50
2019-04-22T11:14:45.531Z,2.83
2019-04-22T11:19:59.525Z,2.67
2019-04-22T11:22:35.161Z,2.70
2019-04-22T11:25:03.645Z,2.52
2019-04-22T11:27:33.092Z,3.08
2019-04-22T11:30:03.902Z,2.40
2019-04-22T11:32:32.976Z,2.75
2019-04-22T11:35:03.640Z,2.70
2019-04-22T11:37:43.038Z,2.77
2019-04-22T11:40:21.575Z,2.50
2019-04-22T11:42:44.238Z,2.58
2019-04-22T11:45:13.359Z,2.65
2019-04-22T11:47:43.671Z,2.62
2019-04-22T11:50:15.687Z,2.70
2019-04-22T11:52:44.813Z,2.50
2019-04-22T11:55:14.958Z,2.45
2019-04-22T11:57:44.808Z,2.55
2019-04-22T12:00:16.864Z,2.65
2019-04-22T12:02:47.165Z,2.60
2019-04-22T12:05:17.499Z,2.45
2019-04-22T12:07:55.423Z,2.37
2019-04-22T12:10:34.674Z,2.42
2019-04-22T12:12:58.029Z,2.45
2019-04-22T12:15:30.969Z,2.40
2019-04-22T12:18:15.286Z,2.70
2019-04-22T12:20:45.443Z,2.62
2019-04-22T12:23:17.015Z,2.50
2019-04-22T12:26:10.847Z,2.35
2019-04-22T12:28:37.066Z,2.17
2019-04-22T12:31:06.279Z,1.90
2019-04-22T12:33:37.037Z,2.65
2019-04-22T12:38:51.460Z,2.05
2019-04-22T12:41:21.624Z,2.00
2019-04-22T12:43:51.756Z,2.40
2019-04-22T12:46:30.222Z,2.50
2019-04-22T12:49:00.323Z,2.70
2019-04-22T12:51:31.170Z,2.20
2019-04-22T12:54:01.378Z,2.12
2019-04-22T12:56:41.913Z,2.15
2019-04-22T12:59:13.828Z,2.12
2019-04-22T13:01:43.098Z,2.33
2019-04-22T13:04:17.598Z,2.10
2019-04-22T13:06:55.554Z,2.02
2019-04-22T13:09:25.271Z,2.35
2019-04-22T13:11:55.099Z,2.22
2019-04-22T13:14:25.105Z,2.55
2019-04-22T13:17:04.029Z,2.33
2019-04-22T13:19:36.142Z,1.82
2019-04-22T13:22:06.963Z,2.30
2019-04-22T13:24:36.382Z,2.08
2019-04-22T13:27:15.055Z,2.08
2019-04-22T13:29:46.590Z,1.87
2019-04-22T13:32:16.388Z,2.30
2019-04-22T13:34:51.520Z,2.40
2019-04-22T13:40:05.283Z,2.35
2019-04-22T13:42:35.441Z,2.33
2019-04-22T13:45:05.556Z,2.90
2019-04-22T13:48:02.909Z,2.25
2019-04-22T13:50:51.428Z,2.65
2019-04-22T13:53:28.908Z,2.25
2019-04-22T13:55:45.352Z,2.40
2019-04-22T13:58:15.708Z,2.27
2019-04-22T14:00:34.222Z,2.05
2019-04-22T14:03:22.487Z,2.42
2019-04-22T14:05:52.982Z,2.30
2019-04-22T14:08:31.415Z,2.02
2019-04-22T14:11:14.900Z,2.27
2019-04-22T14:13:32.304Z,1.98
2019-04-22T14:16:02.183Z,2.20
2019-04-22T14:18:44.621Z,2.20
2019-04-22T14:21:12.791Z,1.85
2019-04-22T14:23:42.470Z,2.35
2019-04-22T14:26:13.276Z,2.30
2019-04-22T14:28:51.458Z,2.42
2019-04-22T14:31:20.606Z,2.40
2019-04-22T14:33:54.753Z,2.20
2019-04-22T14:36:29.728Z,1.95
2019-04-22T14:39:01.988Z,2.30
2019-04-22T14:41:43.542Z,2.22
2019-04-22T14:45:04.978Z,2.02
2019-04-22T14:47:03.596Z,2.42
2019-04-22T14:52:15.117Z,2.30
2019-04-22T14:54:34.929Z,2.37
2019-04-22T14:56:54.168Z,2.55
2019-04-22T14:59:33.973Z,2.22
2019-04-22T15:02:07.595Z,2.33
2019-04-22T15:04:37.321Z,2.20
2019-04-22T15:07:08.586Z,2.20
2019-04-22T15:09:48.473Z,2.27
2019-04-22T15:12:27.782Z,2.30
2019-04-22T15:14:53.121Z,2.70
2019-04-22T15:17:33.077Z,2.50
2019-04-22T15:20:42.009Z,2.40
2019-04-22T15:24:25.065Z,2.40
2019-04-22T15:26:56.501Z,3.08
2019-04-22T15:29:27.323Z,3.72
2019-04-22T15:31:57.678Z,3.00
2019-04-22T15:34:39.532Z,3.00
2019-04-22T15:37:09.033Z,2.92
2019-04-22T15:40:00.865Z,2.95
2019-04-22T15:42:35.569Z,2.62
2019-04-22T15:45:02.426Z,2.33
2019-04-22T15:47:33.104Z,2.85
2019-04-22T15:50:03.969Z,2.58
2019-04-22T15:52:41.719Z,2.75
2019-04-22T15:55:06.726Z,2.70
2019-04-22T15:57:37.924Z,2.35
2019-04-22T16:00:29.357Z,2.52
2019-04-22T16:02:47.597Z,2.20
2019-04-22T16:05:17.867Z,2.27
2019-04-22T16:07:48.702Z,2.58
2019-04-22T16:10:18.022Z,2.50
2019-04-22T16:12:56.450Z,2.00
2019-04-22T16:15:20.554Z,2.30
2019-04-22T16:17:53.106Z,2.62
2019-04-22T16:20:32.184Z,2.30
2019-04-22T16:23:22.381Z,2.42
2019-04-22T16:26:01.027Z,2.52
2019-04-22T16:28:45.424Z,2.42
2019-04-22T16:31:15.394Z,2.52
2019-04-22T16:33:47.669Z,1.98
2019-04-22T16:36:16.703Z,2.55
2019-04-22T16:38:57.589Z,2.52
2019-04-22T16:41:30.589Z,2.35
2019-04-22T16:44:00.723Z,2.35
2019-04-22T16:46:30.057Z,2.70
2019-04-22T16:49:09.796Z,2.42
2019-04-22T16:51:40.283Z,2.73
2019-04-22T16:54:10.060Z,2.43
2019-04-22T16:56:39.671Z,2.57
2019-04-22T17:02:06.415Z,2.87
2019-04-22T17:05:02.021Z,2.80
2019-04-22T17:07:31.997Z,2.80
2019-04-22T17:10:11.302Z,2.67
2019-04-22T17:12:48.759Z,2.50
2019-04-22T17:15:14.723Z,2.70
2019-04-22T17:17:45.298Z,2.87
2019-04-22T17:20:27.034Z,2.50
2019-04-22T17:22:56.101Z,2.80
2019-04-22T17:25:26.489Z,2.87
2019-04-22T17:27:57.549Z,2.63
2019-04-22T17:33:10.659Z,3.60
2019-04-22T17:35:40.522Z,2.50
2019-04-22T17:38:22.603Z,3.23
2019-04-22T17:41:05.815Z,3.03
2019-04-22T17:44:06.242Z,3.27
2019-04-22T17:46:16.156Z,2.73
2019-04-22T17:49:01.960Z,3.10
2019-04-22T17:54:17.198Z,3.00
2019-04-22T17:56:43.724Z,2.57
2019-04-22T17:59:17.210Z,3.30
2019-04-22T18:01:54.047Z,2.80
2019-04-22T18:04:07.177Z,2.60
2019-04-22T18:07:08.220Z,2.93
2019-04-22T18:09:41.197Z,2.70
2019-04-22T18:12:20.583Z,2.53
2019-04-22T18:14:54.681Z,2.90
2019-04-22T18:17:20.801Z,2.63
2019-04-22T18:19:50.836Z,2.90
2019-04-22T18:22:12.317Z,2.70
2019-04-22T18:24:46.392Z,2.77
2019-04-22T18:27:34.821Z,3.00
2019-04-22T18:29:46.694Z,3.00
2019-04-22T18:32:16.789Z,3.00
2019-04-22T18:34:44.111Z,2.90
2019-04-22T18:37:19.897Z,3.00
2019-04-22T18:39:57.029Z,3.00
2019-04-22T18:42:49.859Z,3.10
2019-04-22T18:45:34.442Z,3.10
2019-04-22T18:47:44.327Z,3.03
2019-04-22T18:50:37.056Z,3.13
2019-04-22T19:54:01.468Z,2.70
2019-04-22T19:56:22.906Z,2.57
2019-04-22T19:58:57.396Z,3.23
2019-04-22T20:02:03.158Z,2.70
2019-04-22T20:04:46.108Z,2.83
2019-04-22T20:07:15.412Z,2.83
2019-04-22T20:09:55.652Z,2.90
2019-04-22T20:12:25.542Z,2.33
2019-04-22T20:15:00.759Z,2.70
2019-04-22T20:17:33.138Z,2.57
2019-04-22T20:20:14.391Z,3.20
2019-04-22T20:22:47.128Z,3.17
2019-04-22T20:25:05.447Z,3.17
2019-04-22T20:27:47.233Z,2.60
2019-04-22T20:30:23.481Z,2.83
2019-04-22T20:32:56.283Z,2.70
2019-04-22T20:35:37.369Z,2.93
2019-04-22T20:38:05.183Z,2.80
2019-04-22T20:40:38.835Z,2.83
2019-04-22T20:43:22.109Z,3.00
2019-04-22T20:45:46.730Z,2.60
2019-04-22T20:48:07.806Z,2.90
2019-04-22T20:50:54.214Z,2.80
2019-04-22T20:53:29.977Z,2.77
2019-04-22T20:56:00.694Z,2.87
2019-04-22T20:58:34.285Z,3.10
2019-04-22T21:00:55.786Z,2.33
2019-04-22T21:03:28.506Z,2.90
2019-04-22T21:06:06.896Z,2.63
2019-04-22T21:08:47.559Z,3.00
2019-04-22T21:11:17.467Z,3.00
2019-04-22T21:13:59.828Z,3.00
2019-04-22T21:16:27.670Z,2.70
2019-04-22T21:18:52.669Z,2.77
2019-04-22T21:21:31.640Z,3.47
2019-04-22T21:23:54.461Z,3.00
2019-04-22T21:26:29.678Z,2.83
2019-04-22T21:29:02.250Z,3.57
2019-04-22T21:31:53.182Z,2.83
2019-04-22T21:36:46.177Z,3.20
2019-04-22T21:39:08.221Z,3.10
2019-04-22T21:41:39.081Z,2.73
2019-04-22T21:44:19.646Z,3.37
2019-04-22T21:47:01.007Z,3.27
2019-04-22T21:49:29.742Z,3.17
2019-04-22T21:51:58.379Z,3.50
2019-04-22T21:54:34.002Z,4.07
2019-04-22T21:57:35.590Z,3.30
2019-04-22T21:59:46.528Z,3.30
2019-04-22T22:02:41.149Z,3.23
2019-04-22T22:05:01.879Z,3.80
2019-04-22T22:07:25.133Z,3.30
2019-04-22T22:10:09.920Z,3.40
2019-04-22T22:12:56.005Z,3.40
2019-04-22T22:15:18.628Z,3.73
2019-04-22T22:17:51.643Z,3.47
2019-04-22T22:20:22.200Z,3.93
2019-04-22T22:23:20.960Z,3.63
2019-04-22T22:25:34.976Z,3.77
2019-04-22T22:28:07.685Z,3.50
2019-04-22T22:30:48.101Z,3.63
2019-04-22T22:33:17.539Z,3.77
2019-04-22T22:35:51.948Z,3.47
2019-04-22T22:38:25.974Z,3.90
2019-04-22T22:40:36.664Z,4.27
2019-04-22T22:43:22.630Z,4.00
2019-04-22T22:45:54.455Z,3.87
2019-04-22T22:48:39.721Z,4.37
2019-04-22T22:51:05.345Z,3.93
2019-04-22T22:53:51.247Z,4.10
2019-04-22T22:56:25.350Z,4.50
2019-04-22T22:58:52.808Z,4.27
2019-04-22T23:01:23.761Z,4.37
2019-04-22T23:04:02.452Z,4.20
2019-04-22T23:06:40.634Z,3.87
2019-04-22T23:09:09.888Z,3.90
2019-04-22T23:14:20.744Z,4.80
2019-04-22T23:16:40.864Z,4.73
2019-04-22T23:19:04.684Z,4.87
2019-04-22T23:21:41.953Z,4.40
2019-04-22T23:24:52.335Z,4.60
2019-04-22T23:27:22.784Z,5.20
2019-04-22T23:30:12.739Z,4.20
2019-04-22T23:32:44.119Z,4.80
2019-04-22T23:35:33.662Z,4.70
2019-04-22T23:38:07.532Z,5.57
2019-04-22T23:40:39.051Z,5.33
2019-04-22T23:43:15.474Z,4.40
2019-04-22T23:45:48.153Z,4.60
2019-04-22T23:48:06.803Z,4.80
2019-04-22T23:50:45.396Z,4.87
2019-04-22T23:56:04.294Z,4.97
